sensor_id;sensor_type;location;lat;lon;timestamp;P1;durP1;ratioP1;P2;durP2;ratioP2
75626;SDS011;64211;49.404;11.034;2022-12-10T00:02:02;30.02;;;13.45;;
75626;SDS011;64211;49.404;11.034;2022-12-10T00:04:28;29.90;;;11.88;;
75626;SDS011;64211;49.404;11.034;2022-12-10T00:06:55;25.75;;;10.77;;
75626;SDS011;64211;49.404;11.034;2022-12-10T00:09:21;28.15;;;11.07;;
75626;SDS011;64211;49.404;11.034;2022-12-10T00:11:48;27.25;;;11.50;;
75626;SDS011;64211;49.404;11.034;2022-12-10T00:14:15;30.33;;;11.55;;
75626;SDS011;64211;49.404;11.034;2022-12-10T00:16:41;29.17;;;12.27;;
75626;SDS011;64211;49.404;11.034;2022-12-10T00:19:08;25.42;;;10.02;;
75626;SDS011;64211;49.404;11.034;2022-12-10T00:21:35;26.02;;;11.63;;
75626;SDS011;64211;49.404;11.034;2022-12-10T00:24:03;23.88;;;10.38;;
75626;SDS011;64211;49.404;11.034;2022-12-10T00:26:32;27.35;;;10.32;;
75626;SDS011;64211;49.404;11.034;2022-12-10T00:29:01;29.27;;;11.82;;
75626;SDS011;64211;49.404;11.034;2022-12-10T00:31:30;26.77;;;12.38;;
75626;SDS011;64211;49.404;11.034;2022-12-10T00:34:00;27.60;;;11.15;;
75626;SDS011;64211;49.404;11.034;2022-12-10T00:36:30;28.77;;;11.65;;
75626;SDS011;64211;49.404;11.034;2022-12-10T00:38:58;26.55;;;10.38;;
75626;SDS011;64211;49.404;11.034;2022-12-10T00:41:26;24.35;;;9.70;;
75626;SDS011;64211;49.404;11.034;2022-12-10T00:43:52;26.65;;;10.95;;
75626;SDS011;64211;49.404;11.034;2022-12-10T00:46:19;25.38;;;9.98;;
75626;SDS011;64211;49.404;11.034;2022-12-10T00:48:46;28.35;;;10.82;;
75626;SDS011;64211;49.404;11.034;2022-12-10T00:51:14;29.15;;;12.60;;
75626;SDS011;64211;49.404;11.034;2022-12-10T00:53:43;26.83;;;10.77;;
75626;SDS011;64211;49.404;11.034;2022-12-10T00:56:11;24.90;;;9.70;;
75626;SDS011;64211;49.404;11.034;2022-12-10T00:58:38;24.98;;;10.05;;
75626;SDS011;64211;49.404;11.034;2022-12-10T01:01:06;25.25;;;9.85;;
75626;SDS011;64211;49.404;11.034;2022-12-10T01:03:44;26.05;;;10.90;;
75626;SDS011;64211;49.404;11.034;2022-12-10T01:06:22;24.13;;;9.93;;
75626;SDS011;64211;49.404;11.034;2022-12-10T01:08:51;25.58;;;10.13;;
75626;SDS011;64211;49.404;11.034;2022-12-10T01:11:19;26.90;;;11.15;;
75626;SDS011;64211;49.404;11.034;2022-12-10T01:13:47;24.33;;;9.32;;
75626;SDS011;64211;49.404;11.034;2022-12-10T01:16:16;25.33;;;10.25;;
75626;SDS011;64211;49.404;11.034;2022-12-10T01:18:44;17.98;;;8.88;;
75626;SDS011;64211;49.404;11.034;2022-12-10T01:21:11;27.08;;;10.18;;
75626;SDS011;64211;49.404;11.034;2022-12-10T01:23:41;25.95;;;9.75;;
75626;SDS011;64211;49.404;11.034;2022-12-10T01:26:10;22.40;;;9.27;;
75626;SDS011;64211;49.404;11.034;2022-12-10T01:28:39;21.33;;;8.63;;
75626;SDS011;64211;49.404;11.034;2022-12-10T01:31:07;23.40;;;9.85;;
75626;SDS011;64211;49.404;11.034;2022-12-10T01:33:39;26.98;;;9.30;;
75626;SDS011;64211;49.404;11.034;2022-12-10T01:36:07;26.48;;;10.35;;
75626;SDS011;64211;49.404;11.034;2022-12-10T01:38:36;28.55;;;11.45;;
75626;SDS011;64211;49.404;11.034;2022-12-10T01:41:02;26.55;;;9.50;;
75626;SDS011;64211;49.404;11.034;2022-12-10T01:43:33;25.17;;;10.75;;
75626;SDS011;64211;49.404;11.034;2022-12-10T01:46:14;23.98;;;9.63;;
75626;SDS011;64211;49.404;11.034;2022-12-10T01:48:41;22.35;;;9.52;;
75626;SDS011;64211;49.404;11.034;2022-12-10T01:51:08;21.13;;;8.73;;
75626;SDS011;64211;49.404;11.034;2022-12-10T01:53:36;22.95;;;9.77;;
75626;SDS011;64211;49.404;11.034;2022-12-10T01:56:02;22.23;;;10.15;;
75626;SDS011;64211;49.404;11.034;2022-12-10T01:58:29;24.13;;;10.00;;
75626;SDS011;64211;49.404;11.034;2022-12-10T02:01:02;26.40;;;9.48;;
75626;SDS011;64211;49.404;11.034;2022-12-10T02:03:42;26.10;;;9.98;;
75626;SDS011;64211;49.404;11.034;2022-12-10T02:06:54;26.50;;;10.98;;
75626;SDS011;64211;49.404;11.034;2022-12-10T02:09:15;22.85;;;9.32;;
75626;SDS011;64211;49.404;11.034;2022-12-10T02:11:53;21.02;;;9.63;;
75626;SDS011;64211;49.404;11.034;2022-12-10T02:14:43;28.98;;;10.23;;
75626;SDS011;64211;49.404;11.034;2022-12-10T02:17:18;27.45;;;9.57;;
75626;SDS011;64211;49.404;11.034;2022-12-10T02:19:52;28.20;;;12.10;;
75626;SDS011;64211;49.404;11.034;2022-12-10T02:22:28;22.83;;;9.82;;
75626;SDS011;64211;49.404;11.034;2022-12-10T02:24:57;24.75;;;10.73;;
75626;SDS011;64211;49.404;11.034;2022-12-10T02:27:44;24.50;;;10.45;;
75626;SDS011;64211;49.404;11.034;2022-12-10T02:30:12;25.70;;;10.05;;
75626;SDS011;64211;49.404;11.034;2022-12-10T02:32:39;29.38;;;12.10;;
75626;SDS011;64211;49.404;11.034;2022-12-10T02:35:11;26.65;;;10.85;;
75626;SDS011;64211;49.404;11.034;2022-12-10T02:37:45;27.50;;;11.18;;
75626;SDS011;64211;49.404;11.034;2022-12-10T02:40:17;26.10;;;10.32;;
75626;SDS011;64211;49.404;11.034;2022-12-10T02:42:48;27.40;;;10.00;;
75626;SDS011;64211;49.404;11.034;2022-12-10T02:45:17;27.60;;;10.50;;
75626;SDS011;64211;49.404;11.034;2022-12-10T02:47:46;27.15;;;9.48;;
75626;SDS011;64211;49.404;11.034;2022-12-10T02:50:14;24.80;;;10.18;;
75626;SDS011;64211;49.404;11.034;2022-12-10T02:52:42;26.70;;;9.50;;
75626;SDS011;64211;49.404;11.034;2022-12-10T02:55:10;22.17;;;9.90;;
75626;SDS011;64211;49.404;11.034;2022-12-10T02:57:49;20.90;;;9.00;;
75626;SDS011;64211;49.404;11.034;2022-12-10T03:00:27;20.02;;;9.20;;
75626;SDS011;64211;49.404;11.034;2022-12-10T03:06:05;27.25;;;10.75;;
75626;SDS011;64211;49.404;11.034;2022-12-10T03:08:46;24.33;;;10.55;;
75626;SDS011;64211;49.404;11.034;2022-12-10T03:11:18;25.58;;;9.20;;
75626;SDS011;64211;49.404;11.034;2022-12-10T03:14:00;26.58;;;11.05;;
75626;SDS011;64211;49.404;11.034;2022-12-10T03:16:34;22.92;;;9.10;;
75626;SDS011;64211;49.404;11.034;2022-12-10T03:19:05;22.67;;;9.93;;
75626;SDS011;64211;49.404;11.034;2022-12-10T03:21:36;25.02;;;9.90;;
75626;SDS011;64211;49.404;11.034;2022-12-10T03:24:06;27.25;;;11.07;;
75626;SDS011;64211;49.404;11.034;2022-12-10T03:26:35;24.52;;;10.57;;
75626;SDS011;64211;49.404;11.034;2022-12-10T03:29:05;25.35;;;10.50;;
75626;SDS011;64211;49.404;11.034;2022-12-10T03:31:34;18.42;;;9.30;;
75626;SDS011;64211;49.404;11.034;2022-12-10T03:34:02;22.00;;;8.98;;
75626;SDS011;64211;49.404;11.034;2022-12-10T03:36:29;25.02;;;9.77;;
75626;SDS011;64211;49.404;11.034;2022-12-10T03:38:57;24.05;;;10.25;;
75626;SDS011;64211;49.404;11.034;2022-12-10T03:41:24;22.73;;;9.02;;
75626;SDS011;64211;49.404;11.034;2022-12-10T03:43:51;22.73;;;10.18;;
75626;SDS011;64211;49.404;11.034;2022-12-10T03:46:26;20.88;;;8.82;;
75626;SDS011;64211;49.404;11.034;2022-12-10T03:48:55;24.60;;;10.20;;
75626;SDS011;64211;49.404;11.034;2022-12-10T03:51:23;28.17;;;11.40;;
75626;SDS011;64211;49.404;11.034;2022-12-10T03:53:50;31.73;;;12.63;;
75626;SDS011;64211;49.404;11.034;2022-12-10T03:56:17;24.20;;;10.52;;
75626;SDS011;64211;49.404;11.034;2022-12-10T03:58:44;22.63;;;9.23;;
75626;SDS011;64211;49.404;11.034;2022-12-10T04:01:10;23.20;;;8.52;;
75626;SDS011;64211;49.404;11.034;2022-12-10T04:03:37;26.42;;;9.20;;
75626;SDS011;64211;49.404;11.034;2022-12-10T04:06:07;23.63;;;9.93;;
75626;SDS011;64211;49.404;11.034;2022-12-10T04:08:35;23.85;;;9.45;;
75626;SDS011;64211;49.404;11.034;2022-12-10T04:11:02;27.02;;;9.63;;
75626;SDS011;64211;49.404;11.034;2022-12-10T04:13:31;23.27;;;9.38;;
75626;SDS011;64211;49.404;11.034;2022-12-10T04:16:17;22.35;;;9.00;;
75626;SDS011;64211;49.404;11.034;2022-12-10T04:18:53;24.88;;;9.75;;
75626;SDS011;64211;49.404;11.034;2022-12-10T04:21:27;27.73;;;10.63;;
75626;SDS011;64211;49.404;11.034;2022-12-10T04:24:13;22.38;;;9.85;;
75626;SDS011;64211;49.404;11.034;2022-12-10T04:27:00;24.70;;;9.50;;
75626;SDS011;64211;49.404;11.034;2022-12-10T04:29:30;26.75;;;11.02;;
75626;SDS011;64211;49.404;11.034;2022-12-10T04:31:57;29.00;;;10.80;;
75626;SDS011;64211;49.404;11.034;2022-12-10T04:34:24;25.30;;;11.05;;
75626;SDS011;64211;49.404;11.034;2022-12-10T04:36:51;27.17;;;10.40;;
75626;SDS011;64211;49.404;11.034;2022-12-10T04:39:18;23.58;;;9.05;;
75626;SDS011;64211;49.404;11.034;2022-12-10T04:41:46;25.23;;;9.63;;
75626;SDS011;64211;49.404;11.034;2022-12-10T04:44:14;23.17;;;9.80;;
75626;SDS011;64211;49.404;11.034;2022-12-10T04:46:41;23.50;;;9.20;;
75626;SDS011;64211;49.404;11.034;2022-12-10T04:49:08;22.10;;;9.55;;
75626;SDS011;64211;49.404;11.034;2022-12-10T04:51:34;22.20;;;8.98;;
75626;SDS011;64211;49.404;11.034;2022-12-10T04:54:01;25.27;;;9.77;;
75626;SDS011;64211;49.404;11.034;2022-12-10T04:56:28;22.13;;;8.32;;
75626;SDS011;64211;49.404;11.034;2022-12-10T04:58:55;23.92;;;8.95;;
75626;SDS011;64211;49.404;11.034;2022-12-10T05:01:22;22.33;;;8.45;;
75626;SDS011;64211;49.404;11.034;2022-12-10T05:03:49;21.95;;;9.80;;
75626;SDS011;64211;49.404;11.034;2022-12-10T05:06:16;22.30;;;8.98;;
75626;SDS011;64211;49.404;11.034;2022-12-10T05:08:43;22.60;;;10.07;;
75626;SDS011;64211;49.404;11.034;2022-12-10T05:11:11;19.73;;;8.73;;
75626;SDS011;64211;49.404;11.034;2022-12-10T05:13:40;22.15;;;9.20;;
75626;SDS011;64211;49.404;11.034;2022-12-10T05:16:07;24.20;;;9.75;;
75626;SDS011;64211;49.404;11.034;2022-12-10T05:18:36;25.08;;;9.35;;
75626;SDS011;64211;49.404;11.034;2022-12-10T05:21:07;24.10;;;9.10;;
75626;SDS011;64211;49.404;11.034;2022-12-10T05:23:36;21.27;;;9.15;;
75626;SDS011;64211;49.404;11.034;2022-12-10T05:26:05;25.38;;;9.80;;
75626;SDS011;64211;49.404;11.034;2022-12-10T05:28:38;25.77;;;10.55;;
75626;SDS011;64211;49.404;11.034;2022-12-10T05:31:11;24.77;;;9.82;;
75626;SDS011;64211;49.404;11.034;2022-12-10T05:33:45;24.80;;;9.80;;
75626;SDS011;64211;49.404;11.034;2022-12-10T05:36:13;26.35;;;10.73;;
75626;SDS011;64211;49.404;11.034;2022-12-10T05:38:42;26.25;;;10.32;;
75626;SDS011;64211;49.404;11.034;2022-12-10T05:41:11;23.83;;;9.68;;
75626;SDS011;64211;49.404;11.034;2022-12-10T05:43:39;25.38;;;9.80;;
75626;SDS011;64211;49.404;11.034;2022-12-10T05:46:08;25.35;;;9.73;;
75626;SDS011;64211;49.404;11.034;2022-12-10T05:48:36;24.42;;;9.70;;
75626;SDS011;64211;49.404;11.034;2022-12-10T05:51:04;23.50;;;9.35;;
75626;SDS011;64211;49.404;11.034;2022-12-10T05:53:32;25.35;;;9.73;;
75626;SDS011;64211;49.404;11.034;2022-12-10T05:55:59;26.98;;;10.60;;
75626;SDS011;64211;49.404;11.034;2022-12-10T05:58:31;24.88;;;10.98;;
75626;SDS011;64211;49.404;11.034;2022-12-10T06:00:58;23.70;;;9.68;;
75626;SDS011;64211;49.404;11.034;2022-12-10T06:03:28;23.42;;;9.98;;
75626;SDS011;64211;49.404;11.034;2022-12-10T06:05:55;24.42;;;10.00;;
75626;SDS011;64211;49.404;11.034;2022-12-10T06:08:21;25.05;;;9.43;;
75626;SDS011;64211;49.404;11.034;2022-12-10T06:10:48;26.25;;;10.02;;
75626;SDS011;64211;49.404;11.034;2022-12-10T06:13:15;30.00;;;11.90;;
75626;SDS011;64211;49.404;11.034;2022-12-10T06:15:41;18.48;;;9.07;;
75626;SDS011;64211;49.404;11.034;2022-12-10T06:18:09;29.23;;;11.63;;
75626;SDS011;64211;49.404;11.034;2022-12-10T06:20:37;25.20;;;12.65;;
75626;SDS011;64211;49.404;11.034;2022-12-10T06:23:13;26.23;;;10.68;;
75626;SDS011;64211;49.404;11.034;2022-12-10T06:25:39;23.17;;;9.35;;
75626;SDS011;64211;49.404;11.034;2022-12-10T06:28:06;30.77;;;12.50;;
75626;SDS011;64211;49.404;11.034;2022-12-10T06:30:34;24.02;;;10.02;;
75626;SDS011;64211;49.404;11.034;2022-12-10T06:33:01;28.48;;;11.07;;
75626;SDS011;64211;49.404;11.034;2022-12-10T06:35:27;26.98;;;10.02;;
75626;SDS011;64211;49.404;11.034;2022-12-10T06:37:54;26.67;;;11.50;;
75626;SDS011;64211;49.404;11.034;2022-12-10T06:40:20;29.80;;;10.65;;
75626;SDS011;64211;49.404;11.034;2022-12-10T06:42:47;25.55;;;9.55;;
75626;SDS011;64211;49.404;11.034;2022-12-10T06:45:13;25.90;;;9.57;;
75626;SDS011;64211;49.404;11.034;2022-12-10T06:47:39;22.58;;;9.70;;
75626;SDS011;64211;49.404;11.034;2022-12-10T06:50:08;24.90;;;9.35;;
75626;SDS011;64211;49.404;11.034;2022-12-10T06:52:35;29.02;;;12.50;;
75626;SDS011;64211;49.404;11.034;2022-12-10T06:55:02;30.17;;;11.90;;
75626;SDS011;64211;49.404;11.034;2022-12-10T06:57:28;25.60;;;11.13;;
75626;SDS011;64211;49.404;11.034;2022-12-10T06:59:55;31.75;;;11.25;;
75626;SDS011;64211;49.404;11.034;2022-12-10T07:02:21;25.83;;;11.07;;
75626;SDS011;64211;49.404;11.034;2022-12-10T07:04:48;31.15;;;11.02;;
75626;SDS011;64211;49.404;11.034;2022-12-10T07:07:14;25.70;;;11.50;;
75626;SDS011;64211;49.404;11.034;2022-12-10T07:09:41;25.92;;;10.75;;
75626;SDS011;64211;49.404;11.034;2022-12-10T07:12:07;28.52;;;11.20;;
75626;SDS011;64211;49.404;11.034;2022-12-10T07:14:33;24.98;;;10.25;;
75626;SDS011;64211;49.404;11.034;2022-12-10T07:17:00;27.45;;;11.50;;
75626;SDS011;64211;49.404;11.034;2022-12-10T07:24:20;25.92;;;10.32;;
75626;SDS011;64211;49.404;11.034;2022-12-10T07:26:47;27.55;;;11.50;;
75626;SDS011;64211;49.404;11.034;2022-12-10T07:29:15;24.42;;;10.18;;
75626;SDS011;64211;49.404;11.034;2022-12-10T07:31:44;28.95;;;11.10;;
75626;SDS011;64211;49.404;11.034;2022-12-10T07:34:11;22.73;;;9.73;;
75626;SDS011;64211;49.404;11.034;2022-12-10T07:36:38;37.90;;;16.27;;
75626;SDS011;64211;49.404;11.034;2022-12-10T07:39:05;23.67;;;9.52;;
75626;SDS011;64211;49.404;11.034;2022-12-10T07:41:33;30.10;;;12.15;;
75626;SDS011;64211;49.404;11.034;2022-12-10T07:44:02;28.13;;;11.82;;
75626;SDS011;64211;49.404;11.034;2022-12-10T07:46:32;25.65;;;9.80;;
75626;SDS011;64211;49.404;11.034;2022-12-10T07:49:00;28.40;;;10.93;;
75626;SDS011;64211;49.404;11.034;2022-12-10T07:53:54;31.92;;;13.13;;
75626;SDS011;64211;49.404;11.034;2022-12-10T07:56:21;28.75;;;10.43;;
75626;SDS011;64211;49.404;11.034;2022-12-10T07:58:49;27.13;;;11.00;;
75626;SDS011;64211;49.404;11.034;2022-12-10T08:01:16;23.27;;;10.65;;
75626;SDS011;64211;49.404;11.034;2022-12-10T08:03:46;27.17;;;10.95;;
75626;SDS011;64211;49.404;11.034;2022-12-10T08:06:14;26.35;;;10.60;;
75626;SDS011;64211;49.404;11.034;2022-12-10T08:08:42;27.75;;;10.75;;
75626;SDS011;64211;49.404;11.034;2022-12-10T08:11:09;32.88;;;12.30;;
75626;SDS011;64211;49.404;11.034;2022-12-10T08:13:36;21.27;;;9.55;;
75626;SDS011;64211;49.404;11.034;2022-12-10T08:16:08;35.85;;;17.05;;
75626;SDS011;64211;49.404;11.034;2022-12-10T08:18:38;29.30;;;12.07;;
75626;SDS011;64211;49.404;11.034;2022-12-10T08:21:05;29.33;;;11.70;;
75626;SDS011;64211;49.404;11.034;2022-12-10T08:23:33;26.92;;;11.88;;
75626;SDS011;64211;49.404;11.034;2022-12-10T08:26:04;25.23;;;9.57;;
75626;SDS011;64211;49.404;11.034;2022-12-10T08:28:31;32.33;;;12.00;;
75626;SDS011;64211;49.404;11.034;2022-12-10T08:30:58;31.23;;;11.77;;
75626;SDS011;64211;49.404;11.034;2022-12-10T08:33:25;30.55;;;10.43;;
75626;SDS011;64211;49.404;11.034;2022-12-10T08:35:51;27.27;;;10.55;;
75626;SDS011;64211;49.404;11.034;2022-12-10T08:38:18;27.00;;;9.02;;
75626;SDS011;64211;49.404;11.034;2022-12-10T08:40:44;28.95;;;11.68;;
75626;SDS011;64211;49.404;11.034;2022-12-10T08:43:10;32.38;;;11.90;;
75626;SDS011;64211;49.404;11.034;2022-12-10T08:45:37;31.77;;;12.95;;
75626;SDS011;64211;49.404;11.034;2022-12-10T08:48:03;31.58;;;13.93;;
75626;SDS011;64211;49.404;11.034;2022-12-10T08:50:30;29.50;;;12.23;;
75626;SDS011;64211;49.404;11.034;2022-12-10T08:52:56;26.63;;;11.10;;
75626;SDS011;64211;49.404;11.034;2022-12-10T08:55:23;27.55;;;13.40;;
75626;SDS011;64211;49.404;11.034;2022-12-10T08:57:49;25.85;;;10.65;;
75626;SDS011;64211;49.404;11.034;2022-12-10T09:00:15;29.40;;;12.00;;
75626;SDS011;64211;49.404;11.034;2022-12-10T09:02:42;29.73;;;11.55;;
75626;SDS011;64211;49.404;11.034;2022-12-10T09:05:08;22.90;;;9.52;;
75626;SDS011;64211;49.404;11.034;2022-12-10T09:07:35;28.98;;;12.05;;
75626;SDS011;64211;49.404;11.034;2022-12-10T09:10:01;27.20;;;11.95;;
75626;SDS011;64211;49.404;11.034;2022-12-10T09:12:28;31.02;;;11.30;;
75626;SDS011;64211;49.404;11.034;2022-12-10T09:14:54;24.48;;;10.35;;
75626;SDS011;64211;49.404;11.034;2022-12-10T09:17:21;30.08;;;13.60;;
75626;SDS011;64211;49.404;11.034;2022-12-10T09:19:47;30.02;;;11.60;;
75626;SDS011;64211;49.404;11.034;2022-12-10T09:22:14;29.70;;;12.32;;
75626;SDS011;64211;49.404;11.034;2022-12-10T09:24:40;29.27;;;12.43;;
75626;SDS011;64211;49.404;11.034;2022-12-10T09:27:07;30.23;;;12.57;;
75626;SDS011;64211;49.404;11.034;2022-12-10T09:29:33;28.48;;;11.25;;
75626;SDS011;64211;49.404;11.034;2022-12-10T09:31:59;29.33;;;11.18;;
75626;SDS011;64211;49.404;11.034;2022-12-10T09:34:26;30.70;;;10.68;;
75626;SDS011;64211;49.404;11.034;2022-12-10T09:36:52;30.60;;;11.57;;
75626;SDS011;64211;49.404;11.034;2022-12-10T09:39:19;29.05;;;11.80;;
75626;SDS011;64211;49.404;11.034;2022-12-10T09:50:50;25.63;;;10.40;;
75626;SDS011;64211;49.404;11.034;2022-12-10T09:53:23;30.58;;;11.93;;
75626;SDS011;64211;49.404;11.034;2022-12-10T09:55:52;27.08;;;10.63;;
75626;SDS011;64211;49.404;11.034;2022-12-10T09:58:22;29.35;;;10.50;;
75626;SDS011;64211;49.404;11.034;2022-12-10T10:00:59;27.08;;;11.20;;
75626;SDS011;64211;49.404;11.034;2022-12-10T10:03:28;30.85;;;12.18;;
75626;SDS011;64211;49.404;11.034;2022-12-10T10:05:59;25.42;;;10.18;;
75626;SDS011;64211;49.404;11.034;2022-12-10T10:08:36;27.73;;;11.52;;
75626;SDS011;64211;49.404;11.034;2022-12-10T10:11:09;22.40;;;10.00;;
75626;SDS011;64211;49.404;11.034;2022-12-10T10:13:45;28.13;;;10.68;;
75626;SDS011;64211;49.404;11.034;2022-12-10T10:18:43;28.17;;;11.27;;
75626;SDS011;64211;49.404;11.034;2022-12-10T10:21:16;29.55;;;12.63;;
75626;SDS011;64211;49.404;11.034;2022-12-10T10:23:46;25.10;;;10.30;;
75626;SDS011;64211;49.404;11.034;2022-12-10T10:26:13;27.20;;;12.32;;
75626;SDS011;64211;49.404;11.034;2022-12-10T10:28:39;25.83;;;10.45;;
75626;SDS011;64211;49.404;11.034;2022-12-10T10:33:55;30.25;;;11.80;;
75626;SDS011;64211;49.404;11.034;2022-12-10T10:36:36;28.83;;;11.05;;
75626;SDS011;64211;49.404;11.034;2022-12-10T10:41:45;34.08;;;13.70;;
75626;SDS011;64211;49.404;11.034;2022-12-10T10:44:23;31.95;;;12.68;;
75626;SDS011;64211;49.404;11.034;2022-12-10T10:46:54;31.20;;;12.43;;
75626;SDS011;64211;49.404;11.034;2022-12-10T10:51:50;28.52;;;11.57;;
75626;SDS011;64211;49.404;11.034;2022-12-10T10:57:15;29.30;;;11.45;;
75626;SDS011;64211;49.404;11.034;2022-12-10T10:59:45;29.13;;;12.93;;
75626;SDS011;64211;49.404;11.034;2022-12-10T11:02:23;28.67;;;12.68;;
75626;SDS011;64211;49.404;11.034;2022-12-10T11:04:55;26.08;;;12.55;;
75626;SDS011;64211;49.404;11.034;2022-12-10T11:07:32;32.10;;;12.20;;
75626;SDS011;64211;49.404;11.034;2022-12-10T11:10:00;28.27;;;11.07;;
75626;SDS011;64211;49.404;11.034;2022-12-10T11:12:39;28.33;;;11.88;;
75626;SDS011;64211;49.404;11.034;2022-12-10T11:17:52;31.42;;;12.10;;
75626;SDS011;64211;49.404;11.034;2022-12-10T11:22:49;35.63;;;14.75;;
75626;SDS011;64211;49.404;11.034;2022-12-10T11:25:19;32.10;;;13.50;;
75626;SDS011;64211;49.404;11.034;2022-12-10T11:27:59;31.30;;;11.90;;
75626;SDS011;64211;49.404;11.034;2022-12-10T11:30:30;27.30;;;11.85;;
75626;SDS011;64211;49.404;11.034;2022-12-10T11:33:09;29.08;;;12.82;;
75626;SDS011;64211;49.404;11.034;2022-12-10T11:41:25;31.17;;;11.77;;
75626;SDS011;64211;49.404;11.034;2022-12-10T11:46:49;35.13;;;12.80;;
75626;SDS011;64211;49.404;11.034;2022-12-10T11:49:40;30.02;;;12.20;;
75626;SDS011;64211;49.404;11.034;2022-12-10T12:00:37;36.45;;;13.93;;
75626;SDS011;64211;49.404;11.034;2022-12-10T12:11:44;31.48;;;11.55;;
75626;SDS011;64211;49.404;11.034;2022-12-10T12:17:02;36.63;;;13.73;;
75626;SDS011;64211;49.404;11.034;2022-12-10T12:19:34;33.05;;;15.20;;
75626;SDS011;64211;49.404;11.034;2022-12-10T12:22:23;37.83;;;13.95;;
75626;SDS011;64211;49.404;11.034;2022-12-10T12:25:02;31.30;;;13.38;;
75626;SDS011;64211;49.404;11.034;2022-12-10T12:27:34;35.63;;;13.20;;
75626;SDS011;64211;49.404;11.034;2022-12-10T12:30:14;31.63;;;12.07;;
75626;SDS011;64211;49.404;11.034;2022-12-10T12:35:58;34.83;;;14.82;;
75626;SDS011;64211;49.404;11.034;2022-12-10T12:38:31;32.08;;;11.98;;
75626;SDS011;64211;49.404;11.034;2022-12-10T12:41:36;38.30;;;15.38;;
75626;SDS011;64211;49.404;11.034;2022-12-10T12:47:22;34.67;;;15.57;;
75626;SDS011;64211;49.404;11.034;2022-12-10T12:49:55;30.88;;;13.25;;
75626;SDS011;64211;49.404;11.034;2022-12-10T12:54:53;39.15;;;15.50;;
75626;SDS011;64211;49.404;11.034;2022-12-10T12:57:38;28.23;;;11.40;;
75626;SDS011;64211;49.404;11.034;2022-12-10T13:00:12;35.67;;;12.90;;
75626;SDS011;64211;49.404;11.034;2022-12-10T13:02:47;35.33;;;13.60;;
75626;SDS011;64211;49.404;11.034;2022-12-10T13:05:21;37.08;;;16.65;;
75626;SDS011;64211;49.404;11.034;2022-12-10T13:13:25;36.90;;;13.52;;
75626;SDS011;64211;49.404;11.034;2022-12-10T13:15:56;31.33;;;12.23;;
75626;SDS011;64211;49.404;11.034;2022-12-10T13:24:21;32.42;;;10.98;;
75626;SDS011;64211;49.404;11.034;2022-12-10T13:29:43;37.88;;;13.73;;
75626;SDS011;64211;49.404;11.034;2022-12-10T13:32:16;37.90;;;14.80;;
75626;SDS011;64211;49.404;11.034;2022-12-10T13:37:36;37.65;;;15.80;;
75626;SDS011;64211;49.404;11.034;2022-12-10T13:40:23;27.45;;;11.18;;
75626;SDS011;64211;49.404;11.034;2022-12-10T13:43:24;33.90;;;12.88;;
75626;SDS011;64211;49.404;11.034;2022-12-10T13:46:20;36.75;;;14.70;;
75626;SDS011;64211;49.404;11.034;2022-12-10T13:48:49;29.92;;;12.25;;
75626;SDS011;64211;49.404;11.034;2022-12-10T13:51:30;28.98;;;10.85;;
75626;SDS011;64211;49.404;11.034;2022-12-10T13:54:12;34.63;;;13.48;;
75626;SDS011;64211;49.404;11.034;2022-12-10T13:57:03;35.75;;;13.02;;
75626;SDS011;64211;49.404;11.034;2022-12-10T14:02:37;30.85;;;12.52;;
75626;SDS011;64211;49.404;11.034;2022-12-10T14:05:23;34.55;;;15.38;;
75626;SDS011;64211;49.404;11.034;2022-12-10T14:07:52;34.13;;;11.98;;
75626;SDS011;64211;49.404;11.034;2022-12-10T14:10:24;33.63;;;12.35;;
75626;SDS011;64211;49.404;11.034;2022-12-10T14:12:55;33.05;;;12.23;;
75626;SDS011;64211;49.404;11.034;2022-12-10T14:15:23;36.28;;;13.80;;
75626;SDS011;64211;49.404;11.034;2022-12-10T14:17:54;35.88;;;12.00;;
75626;SDS011;64211;49.404;11.034;2022-12-10T14:20:27;36.15;;;14.63;;
75626;SDS011;64211;49.404;11.034;2022-12-10T14:22:56;36.50;;;14.50;;
75626;SDS011;64211;49.404;11.034;2022-12-10T14:25:51;36.72;;;13.13;;
75626;SDS011;64211;49.404;11.034;2022-12-10T14:28:18;40.08;;;16.83;;
75626;SDS011;64211;49.404;11.034;2022-12-10T14:30:46;32.38;;;11.73;;
75626;SDS011;64211;49.404;11.034;2022-12-10T14:33:17;34.88;;;13.65;;
75626;SDS011;64211;49.404;11.034;2022-12-10T14:35:47;33.53;;;12.90;;
75626;SDS011;64211;49.404;11.034;2022-12-10T14:38:23;35.88;;;13.75;;
75626;SDS011;64211;49.404;11.034;2022-12-10T14:40:55;34.53;;;12.55;;
75626;SDS011;64211;49.404;11.034;2022-12-10T14:43:23;32.53;;;13.07;;
75626;SDS011;64211;49.404;11.034;2022-12-10T14:45:57;32.17;;;12.50;;
75626;SDS011;64211;49.404;11.034;2022-12-10T14:48:25;37.10;;;14.70;;
75626;SDS011;64211;49.404;11.034;2022-12-10T14:50:51;34.45;;;14.02;;
75626;SDS011;64211;49.404;11.034;2022-12-10T14:53:19;31.25;;;12.02;;
75626;SDS011;64211;49.404;11.034;2022-12-10T14:55:55;24.98;;;10.20;;
75626;SDS011;64211;49.404;11.034;2022-12-10T14:58:28;33.10;;;12.48;;
75626;SDS011;64211;49.404;11.034;2022-12-10T15:01:13;30.15;;;11.77;;
75626;SDS011;64211;49.404;11.034;2022-12-10T15:03:47;31.75;;;13.88;;
75626;SDS011;64211;49.404;11.034;2022-12-10T15:06:16;29.67;;;10.57;;
75626;SDS011;64211;49.404;11.034;2022-12-10T15:08:45;29.48;;;11.57;;
75626;SDS011;64211;49.404;11.034;2022-12-10T15:11:15;31.38;;;13.30;;
75626;SDS011;64211;49.404;11.034;2022-12-10T15:13:45;33.63;;;14.15;;
75626;SDS011;64211;49.404;11.034;2022-12-10T15:16:30;30.13;;;10.85;;
75626;SDS011;64211;49.404;11.034;2022-12-10T15:19:08;28.25;;;11.18;;
75626;SDS011;64211;49.404;11.034;2022-12-10T15:21:40;29.73;;;10.77;;
75626;SDS011;64211;49.404;11.034;2022-12-10T15:24:19;33.20;;;10.50;;
75626;SDS011;64211;49.404;11.034;2022-12-10T15:26:49;33.45;;;14.05;;
75626;SDS011;64211;49.404;11.034;2022-12-10T15:31:54;27.15;;;10.38;;
75626;SDS011;64211;49.404;11.034;2022-12-10T15:34:25;25.75;;;10.57;;
75626;SDS011;64211;49.404;11.034;2022-12-10T15:36:54;23.73;;;9.52;;
75626;SDS011;64211;49.404;11.034;2022-12-10T15:42:06;26.70;;;9.55;;
75626;SDS011;64211;49.404;11.034;2022-12-10T15:44:38;23.30;;;9.18;;
75626;SDS011;64211;49.404;11.034;2022-12-10T15:47:14;22.70;;;9.82;;
75626;SDS011;64211;49.404;11.034;2022-12-10T15:52:18;18.60;;;8.68;;
75626;SDS011;64211;49.404;11.034;2022-12-10T15:54:47;25.98;;;11.05;;
75626;SDS011;64211;49.404;11.034;2022-12-10T15:59:50;22.35;;;10.00;;
75626;SDS011;64211;49.404;11.034;2022-12-10T16:07:43;22.55;;;9.18;;
75626;SDS011;64211;49.404;11.034;2022-12-10T16:10:12;25.58;;;10.32;;
75626;SDS011;64211;49.404;11.034;2022-12-10T16:12:40;21.08;;;8.65;;
75626;SDS011;64211;49.404;11.034;2022-12-10T16:15:10;22.35;;;7.88;;
75626;SDS011;64211;49.404;11.034;2022-12-10T16:17:41;19.67;;;7.65;;
75626;SDS011;64211;49.404;11.034;2022-12-10T16:20:13;20.70;;;7.57;;
75626;SDS011;64211;49.404;11.034;2022-12-10T16:25:14;24.23;;;7.82;;
75626;SDS011;64211;49.404;11.034;2022-12-10T16:27:41;22.40;;;10.30;;